createdAt,value
2019-05-07T00:00:43.847Z,70.73
2019-05-07T00:01:42.774Z,70.73
2019-05-07T00:02:42.892Z,70.11
2019-05-07T00:03:42.738Z,70.11
2019-05-07T00:04:42.954Z,70.32
2019-05-07T00:05:42.905Z,70.32
2019-05-07T00:06:43.455Z,70.42
2019-05-07T00:07:42.729Z,70.42
2019-05-07T00:08:44.894Z,70.21
2019-05-07T00:09:43.164Z,70.32
2019-05-07T00:10:42.687Z,70.11
2019-05-07T00:11:42.764Z,70.11
2019-05-07T00:12:43.166Z,69.70
2019-05-07T00:13:44.520Z,69.80
2019-05-07T00:14:44.361Z,69.87
2019-05-07T00:15:43.729Z,69.87
2019-05-07T00:16:42.600Z,69.80
2019-05-07T00:17:42.944Z,70.01
2019-05-07T00:18:43.027Z,70.21
2019-05-07T00:19:43.178Z,70.32
2019-05-07T00:20:42.568Z,70.53
2019-05-07T00:21:42.545Z,70.53
2019-05-07T00:22:42.528Z,70.73
2019-05-07T00:23:43.315Z,70.84
2019-05-07T00:24:42.808Z,70.97
2019-05-07T00:25:42.535Z,71.08
2019-05-07T00:26:43.189Z,71.08
2019-05-07T00:27:42.751Z,71.18
2019-05-07T00:28:43.233Z,71.28
2019-05-07T00:29:43.020Z,71.18
2019-05-07T00:30:42.681Z,71.28
2019-05-07T00:31:42.459Z,71.18
2019-05-07T00:32:42.498Z,71.28
2019-05-07T00:33:43.218Z,71.28
2019-05-07T00:34:42.581Z,71.28
2019-05-07T00:35:42.957Z,71.70
2019-05-07T00:36:42.376Z,71.39
2019-05-07T00:37:43.123Z,71.28
2019-05-07T00:38:42.800Z,71.49
2019-05-07T00:39:42.502Z,71.28
2019-05-07T00:40:42.654Z,71.39
2019-05-07T00:41:42.793Z,71.28
2019-05-07T00:42:42.315Z,71.28
2019-05-07T00:43:42.862Z,71.53
2019-05-07T00:44:42.304Z,71.53
2019-05-07T00:45:42.295Z,71.42
2019-05-07T00:46:42.782Z,72.25
2019-05-07T00:47:42.651Z,72.05
2019-05-07T00:48:42.389Z,72.36
2019-05-07T00:49:42.613Z,72.36
2019-05-07T00:50:42.224Z,72.36
2019-05-07T00:51:42.483Z,72.05
2019-05-07T00:52:43.019Z,72.15
2019-05-07T00:53:42.442Z,72.25
2019-05-07T00:54:42.343Z,72.36
2019-05-07T00:55:42.373Z,72.36
2019-05-07T00:56:42.858Z,72.25
2019-05-07T00:57:42.879Z,72.15
2019-05-07T00:58:42.846Z,72.46
2019-05-07T00:59:42.930Z,72.39
2019-05-07T01:00:42.248Z,72.60
2019-05-07T01:01:43.261Z,72.39
2019-05-07T01:02:43.118Z,72.39
2019-05-07T01:03:42.490Z,72.60
2019-05-07T01:04:42.336Z,72.49
2019-05-07T01:05:43.232Z,72.39
2019-05-07T01:06:42.478Z,72.39
2019-05-07T01:07:42.104Z,72.60
2019-05-07T01:08:43.006Z,72.80
2019-05-07T01:09:43.033Z,72.70
2019-05-07T01:10:42.135Z,72.39
2019-05-07T01:11:42.918Z,72.60
2019-05-07T01:12:42.420Z,72.80
2019-05-07T01:13:43.122Z,72.70
2019-05-07T01:14:42.104Z,72.70
2019-05-07T01:15:43.027Z,73.01
2019-05-07T01:16:42.226Z,72.70
2019-05-07T01:17:42.554Z,72.91
2019-05-07T01:18:42.204Z,73.01
2019-05-07T01:19:42.371Z,73.32
2019-05-07T01:20:42.461Z,73.43
2019-05-07T01:21:43.216Z,73.43
2019-05-07T01:22:42.414Z,73.36
2019-05-07T01:23:42.758Z,73.43
2019-05-07T01:24:42.933Z,73.32
2019-05-07T01:25:43.047Z,73.53
2019-05-07T01:26:42.587Z,73.43
2019-05-07T01:27:42.670Z,73.22
2019-05-07T01:28:42.189Z,73.36
2019-05-07T01:29:43.032Z,73.46
2019-05-07T01:30:43.194Z,73.57
2019-05-07T01:31:43.094Z,73.88
2019-05-07T01:32:42.542Z,73.88
2019-05-07T01:33:42.352Z,73.57
2019-05-07T01:34:42.960Z,73.67
2019-05-07T01:35:42.327Z,73.46
2019-05-07T01:36:42.741Z,73.67
2019-05-07T01:37:42.241Z,73.57
2019-05-07T01:38:42.687Z,73.57
2019-05-07T01:39:42.231Z,73.57
2019-05-07T01:40:42.766Z,73.88
2019-05-07T01:41:42.059Z,73.67
2019-05-07T01:42:42.379Z,73.67
2019-05-07T01:43:42.918Z,74.19
2019-05-07T01:44:42.053Z,74.08
2019-05-07T01:45:46.402Z,73.67
2019-05-07T01:46:42.632Z,73.67
2019-05-07T01:47:42.509Z,73.67
2019-05-07T01:48:42.902Z,73.88
2019-05-07T01:49:42.219Z,73.88
2019-05-07T01:50:42.906Z,73.77
2019-05-07T01:51:42.279Z,73.98
2019-05-07T01:52:42.682Z,73.67
2019-05-07T01:53:43.042Z,73.57
2019-05-07T01:54:42.586Z,73.77
2019-05-07T01:55:42.771Z,73.67
2019-05-07T01:56:42.756Z,73.77
2019-05-07T01:57:42.094Z,74.19
2019-05-07T01:58:42.471Z,73.98
2019-05-07T01:59:42.759Z,74.19
2019-05-07T02:00:42.378Z,74.11
2019-05-07T02:01:42.929Z,74.53
2019-05-07T02:02:42.542Z,74.63
2019-05-07T02:03:42.002Z,74.63
2019-05-07T02:04:42.749Z,74.63
2019-05-07T02:05:42.400Z,75.05
2019-05-07T02:06:42.930Z,75.05
2019-05-07T02:07:42.917Z,75.05
2019-05-07T02:08:42.330Z,75.15
2019-05-07T02:09:42.508Z,75.15
2019-05-07T02:10:42.817Z,75.15
2019-05-07T02:11:42.240Z,75.15
2019-05-07T02:12:42.521Z,75.15
2019-05-07T02:13:41.986Z,75.26
2019-05-07T02:14:42.246Z,75.57
2019-05-07T02:15:42.811Z,76.12
2019-05-07T02:16:42.294Z,76.02
2019-05-07T02:17:42.970Z,75.92
2019-05-07T02:18:42.453Z,75.98
2019-05-07T02:19:42.470Z,75.81
2019-05-07T02:20:42.661Z,75.81
2019-05-07T02:21:42.306Z,75.81
2019-05-07T02:22:42.780Z,75.81
2019-05-07T02:23:42.629Z,76.33
2019-05-07T02:24:43.235Z,76.12
2019-05-07T02:25:42.010Z,76.12
2019-05-07T02:26:42.722Z,76.02
2019-05-07T02:27:42.061Z,76.12
2019-05-07T02:28:42.622Z,75.92
2019-05-07T02:29:42.925Z,76.12
2019-05-07T02:30:44.409Z,76.02
2019-05-07T02:31:44.247Z,76.02
2019-05-07T02:32:43.234Z,75.92
2019-05-07T02:33:43.472Z,76.23
2019-05-07T02:34:44.276Z,76.23
2019-05-07T02:35:43.889Z,76.02
2019-05-07T02:36:43.374Z,76.02
2019-05-07T02:37:48.529Z,75.92
2019-05-07T02:38:44.227Z,76.12
2019-05-07T02:39:44.010Z,76.23
2019-05-07T02:40:43.333Z,76.64
2019-05-07T02:41:43.733Z,76.75
2019-05-07T02:42:44.060Z,76.85
2019-05-07T02:43:43.025Z,76.75
2019-05-07T02:44:43.800Z,76.75
2019-05-07T02:45:43.788Z,77.06
2019-05-07T02:46:43.422Z,76.85
2019-05-07T02:47:43.528Z,77.06
2019-05-07T02:48:42.910Z,77.26
2019-05-07T02:49:43.589Z,77.61
2019-05-07T02:50:43.484Z,77.61
2019-05-07T02:51:43.592Z,77.72
2019-05-07T02:52:43.737Z,77.92
2019-05-07T02:53:43.058Z,78.03
2019-05-07T02:54:43.550Z,78.13
2019-05-07T02:55:43.454Z,78.44
2019-05-07T02:56:43.215Z,78.75
2019-05-07T02:57:43.471Z,78.86
2019-05-07T02:58:43.343Z,79.06
2019-05-07T02:59:43.882Z,79.06
2019-05-07T03:00:43.458Z,79.17
2019-05-07T03:01:43.243Z,79.58
2019-05-07T03:02:43.580Z,79.69
2019-05-07T03:03:47.788Z,79.83
2019-05-07T03:04:43.400Z,80.04
2019-05-07T03:05:43.239Z,80.35
2019-05-07T03:06:43.986Z,80.46
2019-05-07T03:07:42.723Z,80.46
2019-05-07T03:08:43.731Z,80.66
2019-05-07T03:09:43.211Z,80.98
2019-05-07T03:10:43.298Z,81.08
2019-05-07T03:11:43.252Z,81.08
2019-05-07T03:12:42.974Z,80.87
2019-05-07T03:13:43.252Z,80.98
2019-05-07T03:14:43.545Z,80.87
2019-05-07T03:15:43.211Z,80.87
2019-05-07T03:16:47.557Z,80.87
2019-05-07T03:17:42.944Z,80.77
2019-05-07T03:18:43.536Z,81.01
2019-05-07T03:19:43.036Z,81.22
2019-05-07T03:20:43.008Z,81.32
2019-05-07T03:21:43.993Z,81.43
2019-05-07T03:22:42.852Z,81.74
2019-05-07T03:23:42.963Z,81.84
2019-05-07T03:24:43.111Z,81.74
2019-05-07T03:25:43.167Z,81.84
2019-05-07T03:26:43.363Z,81.95
2019-05-07T03:27:43.126Z,81.95
2019-05-07T03:28:42.752Z,81.95
2019-05-07T03:29:43.940Z,82.05
2019-05-07T03:30:45.075Z,81.84
2019-05-07T03:31:46.124Z,82.15
2019-05-07T03:32:46.783Z,82.05
2019-05-07T03:33:46.446Z,81.95
2019-05-07T03:34:46.685Z,81.95
2019-05-07T03:35:46.187Z,82.05
2019-05-07T03:36:46.602Z,81.84
2019-05-07T03:37:44.167Z,81.63
2019-05-07T03:38:40.428Z,81.43
2019-05-07T03:39:42.968Z,81.22
2019-05-07T03:40:40.413Z,80.87
2019-05-07T03:41:43.241Z,80.66
2019-05-07T03:42:40.345Z,80.66
2019-05-07T03:43:43.193Z,80.87
2019-05-07T03:44:40.325Z,80.77
2019-05-07T03:45:42.993Z,80.46
2019-05-07T03:46:54.674Z,80.46
2019-05-07T03:47:43.875Z,80.56
2019-05-07T03:48:40.309Z,80.25
2019-05-07T03:49:42.979Z,80.15
2019-05-07T03:50:42.858Z,79.83
2019-05-07T03:51:43.942Z,79.94
2019-05-07T03:52:42.914Z,79.94
2019-05-07T03:53:43.187Z,80.04
2019-05-07T03:54:42.861Z,80.04
2019-05-07T03:55:40.281Z,80.15
2019-05-07T03:56:42.906Z,80.56
2019-05-07T03:57:43.280Z,80.77
2019-05-07T03:58:42.877Z,80.98
2019-05-07T03:59:42.917Z,80.98
2019-05-07T04:00:40.191Z,80.87
2019-05-07T04:01:43.061Z,80.77
2019-05-07T04:02:40.132Z,81.22
2019-05-07T04:03:40.164Z,81.22
2019-05-07T04:04:43.031Z,81.32
2019-05-07T04:05:43.051Z,81.32
2019-05-07T04:06:43.203Z,81.32
2019-05-07T04:07:42.729Z,81.53
2019-05-07T04:08:42.868Z,81.22
2019-05-07T04:09:40.061Z,81.32
2019-05-07T04:10:40.043Z,81.32
2019-05-07T04:11:43.068Z,81.32
2019-05-07T04:12:40.078Z,81.32
2019-05-07T04:13:40.023Z,81.32
2019-05-07T04:14:42.898Z,81.43
2019-05-07T04:15:43.504Z,81.53
2019-05-07T04:16:40.030Z,81.63
2019-05-07T04:17:42.840Z,81.74
2019-05-07T04:18:40.040Z,81.63
2019-05-07T04:19:39.981Z,81.84
2019-05-07T04:20:43.152Z,81.74
2019-05-07T04:21:39.927Z,81.53
2019-05-07T04:22:42.873Z,81.74
2019-05-07T04:23:39.921Z,81.74
2019-05-07T04:24:42.675Z,81.63
2019-05-07T04:25:39.876Z,81.63
2019-05-07T04:26:42.807Z,81.53
2019-05-07T04:27:44.113Z,81.53
2019-05-07T04:28:43.398Z,81.53
2019-05-07T04:29:42.602Z,81.63
2019-05-07T04:30:39.840Z,81.53
2019-05-07T04:31:42.998Z,81.74
2019-05-07T04:32:43.184Z,81.74
2019-05-07T04:33:39.792Z,81.63
2019-05-07T04:34:40.346Z,81.53
2019-05-07T04:35:43.107Z,81.63
2019-05-07T04:36:39.760Z,81.53
2019-05-07T04:37:42.548Z,81.53
2019-05-07T04:38:39.747Z,81.53
2019-05-07T04:39:42.321Z,81.43
2019-05-07T04:40:39.735Z,81.43
2019-05-07T04:41:39.698Z,81.39
2019-05-07T04:42:42.595Z,81.29
2019-05-07T04:43:39.758Z,81.18
2019-05-07T04:44:39.697Z,81.08
2019-05-07T04:45:39.661Z,80.98
2019-05-07T04:46:43.750Z,80.87
2019-05-07T04:47:46.411Z,80.87
2019-05-07T04:48:43.553Z,80.77
2019-05-07T04:49:39.645Z,80.66
2019-05-07T04:50:44.411Z,80.77
2019-05-07T04:51:43.259Z,80.87
2019-05-07T04:52:39.577Z,80.66
2019-05-07T04:53:42.654Z,80.56
2019-05-07T04:54:39.610Z,80.52
2019-05-07T04:55:42.846Z,80.52
2019-05-07T04:56:39.542Z,80.42
2019-05-07T04:57:39.525Z,80.32
2019-05-07T04:58:39.555Z,80.00
2019-05-07T04:59:42.530Z,79.90
2019-05-07T05:00:39.495Z,79.58
2019-05-07T05:01:39.616Z,79.44
2019-05-07T05:02:39.476Z,79.44
2019-05-07T05:03:39.602Z,79.13
2019-05-07T05:04:39.476Z,78.92
2019-05-07T05:05:39.495Z,78.58
2019-05-07T05:06:39.433Z,78.47
2019-05-07T05:07:39.444Z,78.37
2019-05-07T05:08:39.587Z,78.16
2019-05-07T05:09:39.404Z,78.16
2019-05-07T05:10:39.445Z,78.06
2019-05-07T05:11:39.373Z,77.95
2019-05-07T05:12:39.425Z,77.75
2019-05-07T05:13:39.354Z,77.75
2019-05-07T05:14:39.342Z,77.64
2019-05-07T05:15:39.392Z,77.64
2019-05-07T05:16:39.334Z,77.72
2019-05-07T05:17:49.621Z,77.72
2019-05-07T05:18:42.005Z,77.51
2019-05-07T05:19:39.309Z,77.20
2019-05-07T05:20:39.402Z,77.20
2019-05-07T05:21:39.270Z,77.20
2019-05-07T05:22:39.261Z,77.09
2019-05-07T05:23:39.240Z,76.89
2019-05-07T05:24:39.513Z,76.64
2019-05-07T05:25:39.242Z,76.12
2019-05-07T05:26:41.789Z,75.92
2019-05-07T05:27:39.327Z,75.60
2019-05-07T05:28:39.187Z,74.67
2019-05-07T05:29:39.181Z,74.43
2019-05-07T05:30:39.172Z,74.53
2019-05-07T05:31:39.170Z,74.63
2019-05-07T05:32:39.182Z,74.43
2019-05-07T05:33:39.139Z,74.43
2019-05-07T05:34:39.142Z,74.19
2019-05-07T05:35:39.128Z,73.98
2019-05-07T05:36:39.125Z,74.08
2019-05-07T05:37:39.173Z,74.19
2019-05-07T05:38:39.079Z,73.98
2019-05-07T05:39:39.144Z,71.88
2019-05-07T05:40:39.063Z,71.46
2019-05-07T05:41:39.083Z,71.67
2019-05-07T05:42:39.029Z,70.70
2019-05-07T05:43:39.019Z,69.87
2019-05-07T05:44:39.018Z,69.35
2019-05-07T05:45:38.998Z,69.25
2019-05-07T05:46:39.031Z,69.84
2019-05-07T05:47:42.111Z,70.26
2019-05-07T05:48:42.335Z,69.95
2019-05-07T05:49:39.123Z,69.22
2019-05-07T05:50:38.948Z,68.91
2019-05-07T05:51:38.978Z,68.70
2019-05-07T05:52:38.958Z,68.46
2019-05-07T05:53:38.984Z,69.09
2019-05-07T05:54:38.908Z,69.09
2019-05-07T05:55:38.933Z,69.09
2019-05-07T05:56:38.980Z,68.33
2019-05-07T05:57:38.907Z,67.82
2019-05-07T05:58:38.879Z,66.78
2019-05-07T05:59:49.237Z,66.78
2019-05-07T06:00:42.163Z,66.57
2019-05-07T06:01:38.898Z,67.09
2019-05-07T06:02:38.860Z,67.82
2019-05-07T06:03:38.808Z,67.88
2019-05-07T06:04:38.813Z,66.96
2019-05-07T06:05:38.849Z,66.33
2019-05-07T06:06:38.774Z,64.68
2019-05-07T06:07:38.888Z,63.96
2019-05-07T06:08:39.203Z,63.54
2019-05-07T06:09:38.747Z,63.42
2019-05-07T06:10:38.840Z,63.82
2019-05-07T06:11:38.734Z,64.03
2019-05-07T06:12:38.726Z,63.82
2019-05-07T06:13:38.717Z,63.93
2019-05-07T06:14:38.721Z,63.59
2019-05-07T06:15:38.689Z,62.97
2019-05-07T06:16:38.666Z,62.87
2019-05-07T06:17:38.660Z,63.28
2019-05-07T06:18:38.676Z,62.63
2019-05-07T06:19:38.676Z,62.43
2019-05-07T06:20:38.628Z,62.01
2019-05-07T06:21:38.606Z,61.50
2019-05-07T06:22:38.597Z,61.40
2019-05-07T06:23:38.593Z,60.57
2019-05-07T06:24:38.636Z,60.36
2019-05-07T06:25:38.568Z,61.16
2019-05-07T06:26:38.584Z,61.47
2019-05-07T06:27:38.546Z,60.64
2019-05-07T06:28:38.536Z,60.44
2019-05-07T06:29:38.685Z,60.23
2019-05-07T06:30:38.526Z,60.75
2019-05-07T06:31:38.544Z,60.82
2019-05-07T06:32:38.495Z,60.10
2019-05-07T06:33:38.527Z,60.31
2019-05-07T06:34:44.255Z,59.28
2019-05-07T06:35:38.659Z,59.38
2019-05-07T06:36:38.458Z,58.86
2019-05-07T06:37:38.485Z,58.45
2019-05-07T06:38:38.442Z,58.14
2019-05-07T06:39:38.451Z,57.29
2019-05-07T06:40:38.444Z,57.50
2019-05-07T06:41:38.394Z,57.18
2019-05-07T06:42:38.401Z,57.29
2019-05-07T06:43:38.377Z,57.06
2019-05-07T06:44:38.355Z,57.16
2019-05-07T06:45:38.364Z,57.03
2019-05-07T06:46:38.830Z,57.03
2019-05-07T06:47:38.537Z,56.93
2019-05-07T06:48:42.654Z,56.62
2019-05-07T06:49:39.293Z,57.62
2019-05-07T06:50:38.446Z,57.62
2019-05-07T06:51:38.352Z,56.59
2019-05-07T06:52:38.632Z,55.66
2019-05-07T06:53:38.273Z,56.38
2019-05-07T06:54:38.344Z,55.57
2019-05-07T06:55:38.237Z,55.66
2019-05-07T06:56:38.296Z,55.05
2019-05-07T06:57:38.275Z,55.85
2019-05-07T06:58:38.215Z,56.36
2019-05-07T06:59:38.265Z,55.95
2019-05-07T07:00:38.256Z,55.95
2019-05-07T07:01:38.184Z,55.43
2019-05-07T07:02:38.196Z,55.33
2019-05-07T07:03:38.172Z,55.10
2019-05-07T07:04:38.157Z,55.41
2019-05-07T07:05:38.190Z,54.59
2019-05-07T07:06:38.123Z,55.00
2019-05-07T07:07:38.124Z,55.51
2019-05-07T07:08:38.108Z,55.41
2019-05-07T07:09:38.093Z,54.28
2019-05-07T07:10:38.083Z,54.38
2019-05-07T07:11:38.073Z,53.45
2019-05-07T07:12:38.083Z,53.97
2019-05-07T07:13:38.042Z,54.07
2019-05-07T07:14:38.050Z,53.45
2019-05-07T07:15:38.151Z,54.17
2019-05-07T07:16:38.061Z,53.87
2019-05-07T07:17:37.993Z,54.25
2019-05-07T07:18:51.279Z,53.94
2019-05-07T07:19:38.986Z,54.46
2019-05-07T07:20:37.973Z,52.89
2019-05-07T07:21:37.955Z,52.79
2019-05-07T07:22:37.950Z,52.28
2019-05-07T07:23:37.941Z,52.89
2019-05-07T07:24:37.981Z,53.00
2019-05-07T07:25:37.931Z,53.38
2019-05-07T07:26:38.711Z,53.28
2019-05-07T07:27:37.885Z,52.36
2019-05-07T07:28:37.881Z,52.23
2019-05-07T07:29:37.861Z,51.72
2019-05-07T07:30:37.871Z,51.07
2019-05-07T07:31:37.925Z,50.97
2019-05-07T07:32:37.831Z,51.39
2019-05-07T07:33:37.820Z,51.15
2019-05-07T07:34:37.800Z,50.64
2019-05-07T07:35:38.341Z,49.62
2019-05-07T07:36:37.914Z,50.93
2019-05-07T07:37:37.783Z,50.72
2019-05-07T07:38:37.762Z,50.29
2019-05-07T07:39:37.760Z,50.39
2019-05-07T07:40:37.761Z,48.96
2019-05-07T07:41:37.750Z,48.52
2019-05-07T07:42:37.749Z,46.89
2019-05-07T07:43:37.751Z,46.89
2019-05-07T07:44:37.692Z,46.78
2019-05-07T07:45:37.689Z,47.30
2019-05-07T07:46:37.712Z,46.07
2019-05-07T07:47:37.691Z,46.48
2019-05-07T07:48:37.658Z,46.78
2019-05-07T07:49:37.661Z,47.71
2019-05-07T07:50:37.633Z,46.99
2019-05-07T07:51:41.715Z,46.37
2019-05-07T07:52:38.641Z,46.37
2019-05-07T07:53:37.622Z,45.97
2019-05-07T07:54:37.590Z,46.89
2019-05-07T07:55:37.672Z,46.58
2019-05-07T07:56:49.157Z,45.78
2019-05-07T07:57:38.588Z,46.30
2019-05-07T07:58:37.580Z,46.19
2019-05-07T07:59:37.564Z,45.68
2019-05-07T08:00:37.698Z,45.37
2019-05-07T08:01:37.509Z,45.37
2019-05-07T08:02:37.502Z,44.26
2019-05-07T08:03:37.508Z,45.10
2019-05-07T08:04:37.510Z,45.93
2019-05-07T08:05:37.489Z,46.44
2019-05-07T08:06:37.450Z,46.54
2019-05-07T08:07:37.471Z,46.75
2019-05-07T08:08:37.434Z,46.75
2019-05-07T08:09:37.463Z,46.64
2019-05-07T08:10:37.451Z,46.95
2019-05-07T08:11:37.505Z,46.64
2019-05-07T08:12:37.466Z,46.95
2019-05-07T08:13:44.928Z,47.16
2019-05-07T08:14:37.364Z,46.87
2019-05-07T08:15:37.374Z,47.89
2019-05-07T08:16:37.732Z,48.10
2019-05-07T08:17:37.353Z,47.79
2019-05-07T08:18:37.346Z,48.22
2019-05-07T08:19:37.353Z,48.43
2019-05-07T08:20:40.032Z,48.74
2019-05-07T08:21:37.490Z,48.76
2019-05-07T08:22:37.315Z,48.97
2019-05-07T08:23:48.502Z,48.86
2019-05-07T08:24:37.252Z,48.97
2019-05-07T08:25:37.242Z,49.05
2019-05-07T08:26:37.242Z,49.05
2019-05-07T08:27:37.211Z,48.84
2019-05-07T08:28:37.269Z,48.31
2019-05-07T08:29:37.221Z,48.41
2019-05-07T08:30:37.198Z,47.69
2019-05-07T08:31:37.181Z,48.10
2019-05-07T08:32:37.160Z,47.79
2019-05-07T08:33:37.246Z,47.79
2019-05-07T08:34:37.161Z,47.89
2019-05-07T08:35:37.137Z,48.08
2019-05-07T08:36:37.120Z,48.49
2019-05-07T08:37:37.111Z,47.97
2019-05-07T08:38:37.121Z,47.97
2019-05-07T08:39:37.094Z,48.39
2019-05-07T08:40:37.116Z,48.28
2019-05-07T08:41:37.083Z,48.41
2019-05-07T08:42:37.074Z,48.61
2019-05-07T08:43:37.051Z,48.72
2019-05-07T08:44:37.112Z,48.72
2019-05-07T08:45:37.101Z,48.51
2019-05-07T08:46:37.021Z,48.49
2019-05-07T08:47:37.001Z,48.39
2019-05-07T08:48:37.058Z,48.59
2019-05-07T08:49:40.088Z,48.06
2019-05-07T08:50:37.996Z,48.57
2019-05-07T08:51:36.960Z,48.06
2019-05-07T08:52:36.946Z,47.13
2019-05-07T08:53:36.951Z,47.96
2019-05-07T08:54:36.952Z,47.46
2019-05-07T08:55:36.934Z,48.18
2019-05-07T08:56:36.922Z,47.97
2019-05-07T08:57:36.919Z,47.77
2019-05-07T08:58:36.880Z,47.88
2019-05-07T08:59:36.893Z,46.75
2019-05-07T09:00:36.850Z,47.08
2019-05-07T09:01:36.859Z,47.08
2019-05-07T09:02:36.908Z,47.36
2019-05-07T09:03:36.851Z,47.59
2019-05-07T09:04:46.571Z,47.69
2019-05-07T09:05:36.814Z,47.49
2019-05-07T09:06:36.789Z,47.79
2019-05-07T09:07:36.778Z,47.69
2019-05-07T09:08:36.769Z,47.28
2019-05-07T09:09:36.771Z,46.46
2019-05-07T09:10:36.799Z,47.08
2019-05-07T09:11:36.741Z,47.38
2019-05-07T09:12:38.159Z,46.56
2019-05-07T09:13:36.739Z,47.05
2019-05-07T09:14:36.708Z,46.03
2019-05-07T09:15:36.718Z,46.23
2019-05-07T09:16:36.695Z,45.72
2019-05-07T09:17:36.703Z,45.83
2019-05-07T09:18:36.659Z,45.60
2019-05-07T09:19:50.392Z,45.70
2019-05-07T09:20:37.655Z,45.39
2019-05-07T09:21:36.639Z,46.62
2019-05-07T09:22:36.617Z,45.50
2019-05-07T09:23:36.605Z,45.27
2019-05-07T09:24:36.599Z,44.35
2019-05-07T09:25:36.704Z,44.45
2019-05-07T09:26:36.568Z,44.55
2019-05-07T09:27:36.574Z,44.35
2019-05-07T09:28:36.557Z,44.24
2019-05-07T09:29:36.567Z,44.35
2019-05-07T09:30:36.540Z,44.04
2019-05-07T09:31:36.517Z,43.63
2019-05-07T09:32:36.517Z,43.63
2019-05-07T09:33:36.517Z,44.24
2019-05-07T09:34:36.499Z,43.63
2019-05-07T09:35:39.534Z,43.63
2019-05-07T09:36:36.476Z,43.10
2019-05-07T09:37:36.467Z,42.40
2019-05-07T09:38:36.442Z,43.02
2019-05-07T09:39:36.448Z,43.10
2019-05-07T09:40:36.431Z,42.67
2019-05-07T09:41:36.429Z,42.36
2019-05-07T09:42:36.399Z,43.16
2019-05-07T09:43:36.381Z,42.55
2019-05-07T09:44:36.374Z,41.81
2019-05-07T09:45:36.367Z,42.02
2019-05-07T09:46:36.377Z,41.20
2019-05-07T09:47:36.353Z,41.71
2019-05-07T09:48:36.334Z,40.79
2019-05-07T09:49:36.321Z,40.30
2019-05-07T09:50:36.319Z,41.83
2019-05-07T09:51:36.335Z,41.83
2019-05-07T09:52:36.278Z,42.03
2019-05-07T09:53:36.276Z,42.24
2019-05-07T09:54:36.268Z,41.81
2019-05-07T09:55:36.277Z,40.99
2019-05-07T09:56:36.260Z,40.05
2019-05-07T09:57:36.238Z,39.56
2019-05-07T09:58:39.065Z,39.97
2019-05-07T09:59:36.204Z,40.08
2019-05-07T10:00:36.227Z,39.78
2019-05-07T10:01:36.268Z,39.99
2019-05-07T10:02:36.196Z,39.99
2019-05-07T10:03:36.168Z,40.19
2019-05-07T10:04:36.157Z,39.48
2019-05-07T10:05:36.159Z,39.89
2019-05-07T10:06:36.146Z,40.40
2019-05-07T10:07:36.126Z,40.30
2019-05-07T10:08:36.146Z,40.60
2019-05-07T10:09:36.120Z,40.48
2019-05-07T10:10:36.083Z,40.69
2019-05-07T10:11:36.106Z,40.36
2019-05-07T10:12:36.167Z,40.05
2019-05-07T10:13:36.046Z,40.55
2019-05-07T10:14:36.044Z,39.94
2019-05-07T10:15:36.039Z,40.95
2019-05-07T10:16:36.066Z,40.85
2019-05-07T10:17:36.005Z,40.95
2019-05-07T10:18:36.017Z,40.55
2019-05-07T10:19:36.005Z,40.42
2019-05-07T10:20:35.976Z,39.61
2019-05-07T10:21:36.014Z,39.32
2019-05-07T10:22:36.012Z,41.08
2019-05-07T10:23:35.940Z,39.24
2019-05-07T10:24:35.935Z,39.46
2019-05-07T10:25:35.915Z,40.89
2019-05-07T10:26:36.043Z,39.85
2019-05-07T10:27:35.917Z,40.05
2019-05-07T10:28:35.894Z,39.85
2019-05-07T10:29:35.894Z,39.62
2019-05-07T10:30:35.875Z,39.12
2019-05-07T10:31:35.881Z,38.79
2019-05-07T10:32:35.876Z,38.79
2019-05-07T10:33:35.895Z,38.59
2019-05-07T10:34:35.838Z,38.59
2019-05-07T10:35:35.806Z,38.59
2019-05-07T10:36:36.314Z,38.89
2019-05-07T10:37:35.795Z,38.08
2019-05-07T10:38:35.774Z,38.40
2019-05-07T10:39:35.775Z,39.01
2019-05-07T10:40:35.787Z,38.89
2019-05-07T10:41:35.795Z,38.40
2019-05-07T10:42:35.774Z,38.89
2019-05-07T10:43:35.804Z,38.60
2019-05-07T10:44:35.722Z,38.50
2019-05-07T10:45:35.705Z,38.69
2019-05-07T10:46:35.683Z,39.10
2019-05-07T10:47:35.857Z,39.61
2019-05-07T10:48:35.665Z,39.51
2019-05-07T10:49:35.646Z,38.46
2019-05-07T10:50:39.180Z,38.59
2019-05-07T10:51:35.626Z,38.59
2019-05-07T10:52:35.650Z,38.89
2019-05-07T10:53:35.694Z,39.01
2019-05-07T10:54:35.604Z,39.30
2019-05-07T10:55:35.585Z,39.51
2019-05-07T10:56:35.597Z,39.10
2019-05-07T10:57:35.658Z,38.78
2019-05-07T10:58:35.577Z,40.71
2019-05-07T10:59:35.562Z,39.90
2019-05-07T11:00:35.545Z,40.69
2019-05-07T11:01:35.580Z,38.46
2019-05-07T11:02:35.533Z,38.98
2019-05-07T11:03:35.602Z,38.08
2019-05-07T11:04:42.641Z,38.71
2019-05-07T11:05:36.539Z,38.71
2019-05-07T11:06:35.482Z,39.01
2019-05-07T11:07:35.523Z,39.22
2019-05-07T11:08:35.467Z,39.32
2019-05-07T11:09:35.435Z,39.32
2019-05-07T11:10:35.431Z,39.53
2019-05-07T11:11:35.427Z,39.53
2019-05-07T11:12:35.435Z,39.01
2019-05-07T11:13:35.406Z,39.12
2019-05-07T11:14:35.424Z,39.01
2019-05-07T11:15:35.391Z,38.60
2019-05-07T11:16:35.389Z,39.22
2019-05-07T11:17:35.566Z,39.22
2019-05-07T11:18:35.375Z,39.71
2019-05-07T11:19:35.345Z,39.51
2019-05-07T11:20:46.520Z,39.20
2019-05-07T11:21:36.438Z,39.10
2019-05-07T11:22:35.292Z,39.20
2019-05-07T11:23:35.291Z,38.48
2019-05-07T11:24:35.305Z,38.87
2019-05-07T11:25:35.263Z,38.46
2019-05-07T11:26:35.298Z,38.67
2019-05-07T11:27:35.245Z,38.57
2019-05-07T11:28:35.263Z,38.57
2019-05-07T11:29:36.659Z,39.39
2019-05-07T11:30:35.516Z,39.49
2019-05-07T11:31:35.208Z,39.18
2019-05-07T11:32:35.190Z,39.47
2019-05-07T11:33:35.285Z,39.37
2019-05-07T11:34:35.227Z,38.64
2019-05-07T11:35:35.176Z,38.24
2019-05-07T11:36:35.292Z,39.17
2019-05-07T11:37:35.152Z,38.76
2019-05-07T11:38:35.117Z,39.06
2019-05-07T11:39:35.126Z,39.06
2019-05-07T11:40:35.115Z,39.06
2019-05-07T11:41:35.088Z,39.26
2019-05-07T11:42:35.091Z,39.06
2019-05-07T11:43:35.077Z,38.65
2019-05-07T11:44:35.063Z,39.26
2019-05-07T11:45:35.065Z,38.96
2019-05-07T11:46:35.047Z,39.17
2019-05-07T11:47:35.026Z,39.26
2019-05-07T11:48:36.436Z,40.28
2019-05-07T11:49:34.996Z,39.86
2019-05-07T11:50:34.995Z,38.33
2019-05-07T11:51:35.046Z,39.26
2019-05-07T11:52:35.837Z,38.76
2019-05-07T11:53:34.957Z,39.06
2019-05-07T11:54:34.975Z,38.85
2019-05-07T11:55:35.093Z,39.06
2019-05-07T11:56:34.935Z,39.35
2019-05-07T11:57:34.923Z,38.64
2019-05-07T11:58:34.895Z,38.33
2019-05-07T11:59:34.908Z,38.02
2019-05-07T12:00:34.893Z,38.23
2019-05-07T12:01:46.738Z,38.64
2019-05-07T12:02:35.863Z,39.04
2019-05-07T12:03:34.853Z,39.25
2019-05-07T12:04:34.849Z,39.04
2019-05-07T12:05:34.865Z,38.94
2019-05-07T12:06:34.907Z,39.35
2019-05-07T12:07:34.827Z,38.84
2019-05-07T12:08:42.941Z,38.94
2019-05-07T12:09:35.814Z,38.84
2019-05-07T12:10:34.765Z,38.85
2019-05-07T12:11:34.745Z,39.17
2019-05-07T12:12:34.847Z,39.57
2019-05-07T12:13:34.744Z,39.67
2019-05-07T12:14:35.125Z,39.17
2019-05-07T12:15:34.707Z,39.47
2019-05-07T12:16:34.744Z,39.26
2019-05-07T12:17:34.796Z,39.08
2019-05-07T12:18:34.707Z,39.69
2019-05-07T12:19:34.676Z,38.98
2019-05-07T12:20:34.795Z,39.28
2019-05-07T12:21:34.653Z,39.69
2019-05-07T12:22:34.668Z,39.49
2019-05-07T12:23:34.621Z,39.18
2019-05-07T12:24:34.646Z,39.49
2019-05-07T12:25:34.647Z,39.59
2019-05-07T12:26:34.682Z,40.00
2019-05-07T12:27:34.617Z,40.81
2019-05-07T12:28:34.655Z,40.19
2019-05-07T12:29:34.557Z,39.87
2019-05-07T12:30:34.636Z,39.55
2019-05-07T12:31:34.539Z,39.15
2019-05-07T12:32:34.796Z,39.25
2019-05-07T12:33:34.548Z,39.04
2019-05-07T12:34:34.516Z,39.04
2019-05-07T12:35:34.520Z,39.13
2019-05-07T12:36:34.529Z,39.43
2019-05-07T12:37:34.512Z,39.23
2019-05-07T12:38:34.487Z,39.53
2019-05-07T12:39:34.461Z,39.01
2019-05-07T12:40:34.493Z,38.60
2019-05-07T12:41:34.524Z,38.60
2019-05-07T12:42:34.406Z,38.40
2019-05-07T12:43:34.414Z,38.80
2019-05-07T12:44:34.427Z,38.80
2019-05-07T12:45:34.390Z,38.60
2019-05-07T12:46:34.424Z,38.29
2019-05-07T12:47:34.373Z,38.31
2019-05-07T12:48:34.534Z,38.92
2019-05-07T12:49:34.406Z,38.82
2019-05-07T12:50:34.334Z,38.42
2019-05-07T12:51:37.561Z,38.92
2019-05-07T12:52:34.333Z,38.62